Toledo, WA (98591)

7:43 AM PST on February 12, 2016 (GMT -0800)
Town | | Change Station
CLOSE
Current Station
Personal Weather Station
Location: Toledo, WA
Elevation: 105 ft
Nearby Weather Stations

Elev 105 ft 46.44 °N, 122.85 °W | Updated 39 seconds ago

Overcast
Overcast
47.2 °F
Feels Like 47 °F
N
0.0
Wind Variable Wind from SSW
Gusts 6.0 mph

Today
High -- | Low -- °F
--% Chance of Precip.
Yesterday
High -- | Low -- °F
Precip. -- in
Pressure 30.09 in
Visibility 10.0 miles
Clouds Scattered Clouds 900 ft
Mostly Cloudy 2000 ft
Overcast 4500 ft
Windchill 47 °F
Dew Point -20 °F
Humidity 5%
Rainfall 0.00 in
Snow Depth Not available.
7:19 AM 5:31 PM
Waxing Crescent, 21% visible
METAR KCLS 121535Z AUTO 21004KT 10SM SCT009 BKN020 OVC045 11/11 A3009 RMK AO2
Pressure 30.09 in
Visibility 10.0 miles
Clouds Scattered Clouds 900 ft
Mostly Cloudy 2000 ft
Overcast 4500 ft
Windchill 47 °F
Dew Point -20 °F
Humidity 5%
Rainfall 0.00 in
Snow Depth Not available.
7:19 AM 5:31 PM
Waxing Crescent, 21% visible
METAR KCLS 121535Z AUTO 21004KT 10SM SCT009 BKN020 OVC045 11/11 A3009 RMK AO2

10-Day Weather Forecast

Almanac

Astronomy

Feb. 12, 2016 Rise Set
Actual Time
Civil Twilight
Nautical Twilight
Astronomical Twilight
Moon
Length of Visible Light
Length of Day
Tomorrow will be .
, % of the Moon is Illuminated

Today's Extremes

State Highs State Lows

Community

WunderPhotos

Upload Photos

1,892,335 photos uploaded!

WunderBlog® & News

Nearby

Air Quality

  Air Quality AQ Index Pollutant
Not available.

Snow Depth

Station Depth Elevation

Earthquake Activity

City Distance Mag. Time & Date
Minimum magnitude displayed is 2.5.

Coastal Water Temperatures

Place Temperature

Stations

Nearby Weather Stations

Station Location Temp. Windchill Dew Point Humidity Wind Precip. Elev Updated Type
                   

Watches & Warnings

There are currently no watches in effect.